Time;durP1;ratioP1;P1;durP2;ratioP2;P2;SDS_P1;SDS_P2;PMS_P1;PMS_P2;Temp;Humidity;BMP_temperature;BMP_pressure;BME280_temperature;BME280_humidity;BME280_pressure;Samples;Min_cycle;Max_cycle;Signal;HPM_P1;HPM_P2
2021/08/22 00:00:57;;;;;;;6.00;5.50;;;21.50;99.90;;;;;;2071214;28;20115;-70
2021/08/22 00:01:58;;;;;;;6.60;5.95;;;21.50;99.90;;;;;;2073085;28;20447;-70
2021/08/22 00:02:58;;;;;;;6.53;5.90;;;21.50;99.90;;;;;;2071443;28;20018;-70
2021/08/22 00:03:59;;;;;;;6.00;5.40;;;21.50;99.90;;;;;;2071888;28;20497;-70
2021/08/22 00:05:00;;;;;;;6.07;5.57;;;21.50;99.90;;;;;;2071874;28;20026;-70
2021/08/22 00:06:00;;;;;;;7.40;6.70;;;21.50;99.90;;;;;;2071940;28;20030;-70
2021/08/22 00:07:01;;;;;;;6.43;5.82;;;21.50;99.90;;;;;;2070691;28;20022;-71
2021/08/22 00:08:02;;;;;;;7.50;6.00;;;21.50;99.90;;;;;;2070617;28;20104;-70
2021/08/22 00:09:04;;;;;;;6.40;5.80;;;21.50;99.90;;;;;;2063562;28;20033;-71
2021/08/22 00:10:05;;;;;;;6.63;5.38;;;21.50;99.90;;;;;;2069243;28;20091;-71
2021/08/22 00:11:06;;;;;;;6.25;5.22;;;21.50;99.90;;;;;;2071676;28;20482;-70
2021/08/22 00:12:07;;;;;;;5.93;5.32;;;21.50;99.90;;;;;;2071736;28;20050;-71
2021/08/22 00:13:07;;;;;;;7.28;5.78;;;21.50;99.90;;;;;;2071304;28;20041;-71
2021/08/22 00:14:08;;;;;;;6.60;5.95;;;21.40;99.90;;;;;;2071488;28;20048;-71
2021/08/22 00:15:09;;;;;;;7.03;6.28;;;21.50;99.90;;;;;;2071547;28;20742;-71
2021/08/22 00:16:10;;;;;;;6.72;5.80;;;21.50;99.90;;;;;;2071679;28;20026;-71
2021/08/22 00:17:10;;;;;;;5.88;5.28;;;21.40;99.90;;;;;;2072809;28;20030;-71
2021/08/22 00:18:11;;;;;;;6.32;5.65;;;21.40;99.90;;;;;;2071696;28;20034;-71
2021/08/22 00:19:12;;;;;;;5.90;5.40;;;21.50;99.90;;;;;;2071397;28;20034;-71
2021/08/22 00:20:13;;;;;;;7.07;5.57;;;21.40;99.90;;;;;;2072071;28;20528;-71
2021/08/22 00:21:14;;;;;;;6.47;5.90;;;21.40;99.90;;;;;;2071220;28;20441;-70
2021/08/22 00:22:14;;;;;;;5.75;5.25;;;21.40;99.90;;;;;;2071563;28;20061;-71
2021/08/22 00:23:15;;;;;;;6.40;5.80;;;21.40;99.90;;;;;;2070975;28;20097;-71
2021/08/22 00:24:15;;;;;;;6.15;5.68;;;21.40;99.90;;;;;;2071570;28;20022;-71
2021/08/22 00:25:16;;;;;;;6.93;6.10;;;21.40;99.90;;;;;;2071530;28;20030;-71
2021/08/22 00:26:16;;;;;;;5.65;5.15;;;21.40;99.90;;;;;;2071550;28;20057;-70
2021/08/22 00:27:17;;;;;;;5.88;5.30;;;21.40;99.90;;;;;;2071686;28;20029;-71
2021/08/22 00:28:18;;;;;;;6.57;5.88;;;21.40;99.90;;;;;;2071618;28;20040;-71
2021/08/22 00:29:19;;;;;;;6.15;5.57;;;21.40;99.90;;;;;;2072134;28;20093;-71
2021/08/22 00:30:19;;;;;;;7.75;5.43;;;21.40;99.90;;;;;;2079712;28;20049;-71
2021/08/22 00:31:20;;;;;;;5.38;4.93;;;21.40;99.90;;;;;;2072973;28;20037;-71
2021/08/22 00:32:20;;;;;;;6.22;5.55;;;21.40;99.90;;;;;;2071251;28;20022;-71
2021/08/22 00:33:21;;;;;;;6.80;5.30;;;21.40;99.90;;;;;;2071419;28;20026;-71
2021/08/22 00:34:22;;;;;;;6.82;5.85;;;21.40;99.90;;;;;;2071518;28;20498;-71
2021/08/22 00:35:22;;;;;;;5.70;5.20;;;21.40;99.90;;;;;;2071718;28;20022;-71
2021/08/22 00:36:23;;;;;;;6.43;5.82;;;21.40;99.90;;;;;;2071356;28;20049;-71
2021/08/22 00:37:26;;;;;;;6.43;5.68;;;21.40;99.90;;;;;;2071665;28;20025;-71
2021/08/22 00:38:27;;;;;;;5.75;5.25;;;21.40;99.90;;;;;;2071142;28;20390;-71
2021/08/22 00:39:28;;;;;;;5.63;5.10;;;21.40;99.90;;;;;;2069033;28;20026;-71
2021/08/22 00:40:28;;;;;;;6.95;6.30;;;21.40;99.90;;;;;;2067950;28;20058;-71
2021/08/22 00:41:29;;;;;;;7.60;5.78;;;21.30;99.90;;;;;;2067846;28;20027;-71
2021/08/22 00:42:33;;;;;;;7.13;5.63;;;21.40;99.90;;;;;;2070496;28;20088;-71
2021/08/22 00:43:35;;;;;;;6.43;5.82;;;21.30;99.90;;;;;;2075806;28;20508;-71
2021/08/22 00:44:36;;;;;;;7.85;6.00;;;21.30;99.90;;;;;;2071420;28;20410;-71
2021/08/22 00:45:37;;;;;;;6.53;5.97;;;21.30;99.90;;;;;;2071467;28;20049;-71
2021/08/22 00:46:38;;;;;;;6.53;6.00;;;21.40;99.90;;;;;;2071441;28;20047;-71
2021/08/22 00:47:43;;;;;;;6.07;5.55;;;21.40;99.90;;;;;;2071818;28;20532;-71
2021/08/22 00:48:45;;;;;;;7.07;5.88;;;21.40;99.90;;;;;;2071398;28;20033;-71
2021/08/22 00:49:46;;;;;;;9.95;5.82;;;21.40;99.90;;;;;;2071740;28;20398;-71
2021/08/22 00:50:46;;;;;;;5.97;5.40;;;21.30;99.90;;;;;;2071343;28;20241;-70
2021/08/22 00:51:47;;;;;;;6.50;5.88;;;21.30;99.90;;;;;;2071157;28;20454;-71
2021/08/22 00:52:50;;;;;;;7.13;6.43;;;21.30;99.90;;;;;;2071087;28;20030;-71
2021/08/22 00:53:51;;;;;;;8.48;6.32;;;21.30;99.90;;;;;;2070487;28;20502;-71
2021/08/22 00:54:51;;;;;;;8.65;6.32;;;21.30;99.90;;;;;;2070783;28;20501;-70
2021/08/22 00:55:53;;;;;;;6.97;5.80;;;21.30;99.90;;;;;;2071685;28;20111;-70
2021/08/22 00:56:54;;;;;;;6.55;5.85;;;21.30;99.90;;;;;;2071304;28;20022;-70
2021/08/22 00:57:55;;;;;;;7.28;6.18;;;21.20;99.90;;;;;;2071406;28;20521;-71
2021/08/22 00:58:55;;;;;;;6.40;5.70;;;21.30;99.90;;;;;;2071317;28;20103;-71
2021/08/22 01:00:11;;;;;;;7.60;6.25;;;21.30;99.90;;;;;;2077276;28;20064;-70
2021/08/22 01:01:23;;;;;;;5.45;4.95;;;21.20;99.90;;;;;;2071181;28;20044;-70
2021/08/22 01:02:30;;;;;;;5.57;5.07;;;21.20;99.90;;;;;;2078784;28;20032;-70
2021/08/22 01:03:45;;;;;;;5.78;5.07;;;21.20;99.90;;;;;;2077633;28;20720;-70
2021/08/22 01:04:53;;;;;;;5.60;5.10;;;21.20;99.90;;;;;;2071515;28;20022;-71
2021/08/22 01:06:08;;;;;;;6.68;4.90;;;21.10;99.90;;;;;;2071569;28;20029;-70
2021/08/22 01:07:23;;;;;;;5.78;5.25;;;21.10;99.90;;;;;;2071376;28;20129;-70
2021/08/22 01:08:35;;;;;;;7.57;4.35;;;21.10;99.90;;;;;;2071364;28;20454;-70
2021/08/22 01:09:44;;;;;;;6.30;4.78;;;21.10;99.90;;;;;;2071320;28;20080;-70
2021/08/22 01:10:45;;;;;;;5.88;4.53;;;21.10;99.90;;;;;;2071499;28;20041;-70
2021/08/22 01:11:46;;;;;;;5.15;4.22;;;21.10;99.90;;;;;;2070703;28;20397;-70
2021/08/22 01:12:57;;;;;;;4.70;3.83;;;21.10;99.90;;;;;;2071386;28;20033;-70
2021/08/22 01:14:02;;;;;;;4.10;3.70;;;21.00;99.90;;;;;;2071182;28;20029;-70
2021/08/22 01:15:09;;;;;;;4.05;3.75;;;21.00;99.90;;;;;;2068630;28;20125;-70
2021/08/22 01:16:12;;;;;;;4.20;3.75;;;20.90;99.90;;;;;;2072457;28;20076;-70
2021/08/22 01:17:14;;;;;;;4.03;3.35;;;20.90;99.90;;;;;;2071179;28;20029;-70
2021/08/22 01:18:19;;;;;;;4.05;2.83;;;20.90;99.90;;;;;;2071396;28;20037;-70
2021/08/22 01:19:34;;;;;;;3.88;3.25;;;20.90;99.90;;;;;;2071481;28;20026;-70
2021/08/22 01:20:42;;;;;;;3.97;3.42;;;20.80;99.90;;;;;;2071291;28;20022;-70
2021/08/22 01:21:44;;;;;;;3.95;3.58;;;20.80;99.90;;;;;;2071013;28;20030;-70
2021/08/22 01:22:46;;;;;;;2.90;2.63;;;20.80;99.90;;;;;;2068214;28;20034;-70
2021/08/22 01:23:53;;;;;;;4.10;3.58;;;20.80;99.90;;;;;;2069882;28;20518;-70
2021/08/22 01:24:56;;;;;;;3.65;3.30;;;20.80;99.90;;;;;;2070847;28;20033;-70
2021/08/22 01:25:58;;;;;;;4.72;3.00;;;20.80;99.90;;;;;;2071350;28;20086;-70
2021/08/22 01:27:00;;;;;;;5.10;3.80;;;20.80;99.90;;;;;;2071370;28;20057;-70
2021/08/22 01:28:01;;;;;;;3.95;3.33;;;20.80;99.90;;;;;;2071372;28;20038;-70
2021/08/22 01:29:04;;;;;;;3.95;3.03;;;20.80;99.90;;;;;;2071161;28;20056;-70
2021/08/22 01:30:07;;;;;;;3.13;2.90;;;20.80;99.90;;;;;;2071224;28;20018;-70
2021/08/22 01:31:12;;;;;;;3.63;3.33;;;20.80;99.90;;;;;;2069029;28;20440;-70
2021/08/22 01:32:14;;;;;;;4.20;3.35;;;20.80;99.90;;;;;;2076970;28;20022;-70
2021/08/22 01:33:19;;;;;;;3.35;3.15;;;20.80;99.90;;;;;;2070928;28;20014;-70
2021/08/22 01:34:22;;;;;;;3.50;3.20;;;20.80;99.90;;;;;;2070918;28;20026;-70
2021/08/22 01:35:23;;;;;;;5.63;3.47;;;20.80;99.90;;;;;;2071386;28;20030;-70
2021/08/22 01:36:25;;;;;;;3.85;3.45;;;20.70;99.90;;;;;;2071259;28;20120;-70
2021/08/22 01:37:27;;;;;;;4.00;3.65;;;20.70;99.90;;;;;;2071164;28;20018;-70
2021/08/22 01:38:28;;;;;;;4.97;3.45;;;20.70;99.90;;;;;;2071194;28;20418;-70
2021/08/22 01:39:31;;;;;;;3.83;3.40;;;20.70;99.90;;;;;;2070940;28;20030;-70
2021/08/22 01:40:32;;;;;;;4.68;3.30;;;20.70;99.90;;;;;;2071324;28;20116;-70
2021/08/22 01:41:33;;;;;;;3.70;3.28;;;20.70;99.90;;;;;;2071177;28;20022;-70
2021/08/22 01:42:35;;;;;;;4.30;3.40;;;20.70;99.90;;;;;;2070687;28;20390;-70
2021/08/22 01:43:37;;;;;;;4.05;3.28;;;20.70;99.90;;;;;;2071233;28;20033;-70
2021/08/22 01:44:39;;;;;;;3.42;3.08;;;20.70;99.90;;;;;;2071334;28;20030;-70
2021/08/22 01:45:41;;;;;;;3.65;3.22;;;20.70;99.90;;;;;;2074414;28;20071;-70
2021/08/22 01:46:43;;;;;;;3.20;2.90;;;20.70;99.90;;;;;;2079308;28;20021;-70
2021/08/22 01:47:45;;;;;;;4.97;3.20;;;20.70;99.90;;;;;;2070527;28;20172;-70
2021/08/22 01:48:46;;;;;;;5.82;3.20;;;20.70;99.90;;;;;;2070153;28;20029;-70
2021/08/22 01:49:47;;;;;;;3.78;3.35;;;20.70;99.90;;;;;;2071234;28;20030;-69
2021/08/22 01:50:47;;;;;;;3.40;3.05;;;20.70;99.90;;;;;;2071315;28;20048;-69
2021/08/22 01:51:48;;;;;;;3.55;3.10;;;20.60;99.90;;;;;;2070863;28;20409;-70
2021/08/22 01:52:56;;;;;;;2.88;2.67;;;20.70;99.90;;;;;;2070767;28;20121;-70
2021/08/22 01:53:59;;;;;;;5.05;3.33;;;20.70;99.90;;;;;;2071165;28;20119;-70
2021/08/22 01:55:02;;;;;;;3.30;3.00;;;20.60;99.90;;;;;;2071065;28;20022;-70
2021/08/22 01:56:03;;;;;;;2.90;2.70;;;20.60;99.90;;;;;;2071212;28;20402;-70
2021/08/22 01:57:04;;;;;;;3.28;3.00;;;20.60;99.90;;;;;;2070992;28;20042;-70
2021/08/22 01:58:06;;;;;;;3.38;3.00;;;20.60;99.90;;;;;;2071568;28;20030;-70
2021/08/22 01:59:07;;;;;;;3.10;2.90;;;20.60;99.90;;;;;;2072065;28;20172;-70
2021/08/22 02:00:09;;;;;;;3.47;3.17;;;20.60;99.90;;;;;;2075761;28;20018;-70
2021/08/22 02:01:10;;;;;;;3.88;3.00;;;20.60;99.90;;;;;;2072520;28;20018;-70
2021/08/22 02:02:10;;;;;;;3.67;2.92;;;20.60;99.90;;;;;;2072476;28;20036;-70
2021/08/22 02:03:23;;;;;;;3.75;3.20;;;20.60;99.90;;;;;;2072157;28;20029;-70
2021/08/22 02:04:33;;;;;;;4.28;2.92;;;20.60;99.90;;;;;;2072608;28;20045;-69
2021/08/22 02:05:37;;;;;;;3.42;3.03;;;20.50;99.90;;;;;;2072581;28;20018;-69
2021/08/22 02:06:51;;;;;;;3.38;2.70;;;20.50;99.90;;;;;;2072318;28;20030;-69
2021/08/22 02:07:52;;;;;;;3.53;2.70;;;20.50;99.90;;;;;;2072621;28;20040;-69
2021/08/22 02:08:59;;;;;;;3.17;2.83;;;20.50;99.90;;;;;;2072348;28;20467;-69
2021/08/22 02:10:05;;;;;;;3.65;3.28;;;20.50;99.90;;;;;;2072680;28;20072;-69
2021/08/22 02:11:28;;;;;;;3.92;2.97;;;20.50;99.90;;;;;;2072438;28;20026;-69
2021/08/22 02:12:29;;;;;;;3.40;2.95;;;20.40;99.90;;;;;;2074261;28;20130;-69
2021/08/22 02:13:35;;;;;;;3.50;3.20;;;20.40;99.90;;;;;;2079989;28;20036;-70
2021/08/22 02:14:39;;;;;;;3.83;2.97;;;20.50;99.90;;;;;;2079718;28;20017;-70
2021/08/22 02:15:41;;;;;;;3.60;2.92;;;20.40;99.90;;;;;;2073821;28;20091;-70
2021/08/22 02:16:47;;;;;;;3.33;3.00;;;20.40;99.90;;;;;;2073907;28;20057;-70
2021/08/22 02:18:06;;;;;;;2.88;2.67;;;20.40;99.90;;;;;;2071253;28;20073;-70
2021/08/22 02:19:07;;;;;;;4.03;3.10;;;20.40;99.90;;;;;;2073771;28;20399;-70
2021/08/22 02:20:08;;;;;;;5.65;3.50;;;20.30;99.90;;;;;;2074021;28;20115;-70
2021/08/22 02:21:09;;;;;;;3.58;3.03;;;20.40;99.90;;;;;;2073185;28;20018;-70
2021/08/22 02:22:10;;;;;;;3.80;3.40;;;20.40;99.90;;;;;;2073340;28;20017;-70
2021/08/22 02:23:11;;;;;;;6.20;3.33;;;20.40;99.90;;;;;;2073463;28;20032;-70
2021/08/22 02:24:12;;;;;;;3.70;3.05;;;20.40;99.90;;;;;;2073854;28;20463;-70
2021/08/22 02:25:14;;;;;;;4.05;2.75;;;20.30;99.90;;;;;;2073779;28;20414;-69
2021/08/22 02:26:14;;;;;;;3.13;2.85;;;20.30;99.90;;;;;;2073719;28;20033;-69
2021/08/22 02:27:15;;;;;;;5.53;3.63;;;20.30;99.90;;;;;;2076090;28;20068;-69
2021/08/22 02:28:16;;;;;;;3.65;3.35;;;20.30;99.90;;;;;;2073558;28;20037;-69
2021/08/22 02:29:17;;;;;;;4.90;2.83;;;20.30;99.90;;;;;;2073759;28;20359;-69
2021/08/22 02:30:17;;;;;;;3.55;3.17;;;20.30;99.90;;;;;;2073828;28;20044;-69
2021/08/22 02:31:18;;;;;;;3.75;3.10;;;20.30;99.90;;;;;;2073923;28;20018;-69
2021/08/22 02:32:18;;;;;;;3.50;3.20;;;20.30;99.90;;;;;;2073592;28;20021;-69
2021/08/22 02:33:19;;;;;;;5.20;2.97;;;20.30;99.90;;;;;;2073778;28;20493;-69
2021/08/22 02:34:19;;;;;;;4.45;3.00;;;20.30;99.90;;;;;;2073489;28;20021;-69
2021/08/22 02:35:20;;;;;;;3.45;3.15;;;20.30;99.90;;;;;;2073818;28;20048;-69
2021/08/22 02:36:21;;;;;;;6.25;3.10;;;20.30;99.90;;;;;;2073731;28;20073;-70
2021/08/22 02:37:21;;;;;;;2.92;2.72;;;20.30;99.90;;;;;;2073618;28;20034;-70
2021/08/22 02:38:22;;;;;;;6.00;3.00;;;20.30;99.90;;;;;;2073678;28;20041;-70
2021/08/22 02:39:22;;;;;;;3.72;2.95;;;20.30;99.90;;;;;;2073116;28;20044;-70
2021/08/22 02:40:23;;;;;;;3.15;2.95;;;20.30;99.90;;;;;;2073975;28;20034;-70
2021/08/22 02:41:23;;;;;;;2.88;2.67;;;20.20;99.90;;;;;;2065654;28;20612;-70
2021/08/22 02:42:24;;;;;;;2.90;2.70;;;20.20;99.90;;;;;;2069447;28;20032;-70
2021/08/22 02:43:24;;;;;;;2.67;2.53;;;20.20;99.90;;;;;;2077361;28;20450;-70
2021/08/22 02:44:25;;;;;;;2.97;2.65;;;20.20;99.90;;;;;;2073497;28;20379;-70
2021/08/22 02:45:26;;;;;;;2.97;2.55;;;20.20;99.90;;;;;;2073770;28;20033;-70
2021/08/22 02:46:26;;;;;;;3.15;2.85;;;20.20;99.90;;;;;;2074166;28;20030;-69
2021/08/22 02:47:27;;;;;;;3.22;2.65;;;20.20;99.90;;;;;;2073636;28;20029;-69
2021/08/22 02:48:27;;;;;;;2.72;2.53;;;20.10;99.90;;;;;;2073590;28;20034;-69
2021/08/22 02:49:28;;;;;;;4.75;2.80;;;20.10;99.90;;;;;;2073649;28;20032;-69
2021/08/22 02:50:29;;;;;;;2.70;2.50;;;20.10;99.90;;;;;;2073545;28;20061;-69
2021/08/22 02:51:29;;;;;;;4.38;2.67;;;20.10;99.90;;;;;;2073700;28;20111;-69
2021/08/22 02:52:30;;;;;;;3.58;2.33;;;20.20;99.90;;;;;;2073420;28;20033;-69
2021/08/22 02:53:30;;;;;;;2.67;2.47;;;20.10;99.90;;;;;;2073438;28;20051;-69
2021/08/22 02:54:31;;;;;;;2.42;2.22;;;20.10;99.90;;;;;;2073572;28;20040;-70
2021/08/22 02:55:32;;;;;;;2.38;2.17;;;20.10;99.90;;;;;;2073959;28;20394;-70
2021/08/22 02:56:32;;;;;;;2.70;2.25;;;20.10;99.90;;;;;;2073612;28;20347;-70
2021/08/22 02:57:33;;;;;;;2.47;2.28;;;20.10;99.90;;;;;;2074073;28;20026;-70
2021/08/22 02:58:33;;;;;;;4.32;2.17;;;20.10;99.90;;;;;;2073575;28;20076;-70
2021/08/22 02:59:34;;;;;;;2.83;2.42;;;20.10;99.90;;;;;;2073640;28;20049;-70
2021/08/22 03:00:35;;;;;;;2.80;2.47;;;20.10;99.90;;;;;;2073700;28;20030;-70
2021/08/22 03:01:35;;;;;;;2.58;2.20;;;20.10;99.90;;;;;;2072613;28;20038;-70
2021/08/22 03:02:36;;;;;;;4.50;2.50;;;20.10;99.90;;;;;;2072082;28;20026;-70
2021/08/22 03:03:36;;;;;;;2.38;2.17;;;20.00;99.90;;;;;;2071969;28;20037;-70
2021/08/22 03:04:37;;;;;;;2.30;2.13;;;20.00;99.90;;;;;;2064532;28;20027;-69
2021/08/22 03:05:37;;;;;;;2.50;2.22;;;20.00;99.90;;;;;;2072108;28;20057;-69
2021/08/22 03:06:38;;;;;;;2.47;2.28;;;20.00;99.90;;;;;;2072930;28;20030;-69
2021/08/22 03:07:39;;;;;;;2.05;1.95;;;20.00;99.90;;;;;;2072383;28;20112;-69
2021/08/22 03:08:39;;;;;;;3.00;2.40;;;20.00;99.90;;;;;;2072630;28;20080;-70
2021/08/22 03:09:40;;;;;;;2.40;2.20;;;20.00;99.90;;;;;;2072399;28;20057;-70
2021/08/22 03:10:40;;;;;;;2.63;2.40;;;20.00;99.90;;;;;;2074277;28;20556;-69
2021/08/22 03:11:41;;;;;;;2.88;1.95;;;20.00;99.90;;;;;;2075258;28;20053;-69
2021/08/22 03:12:41;;;;;;;2.92;2.20;;;20.00;99.90;;;;;;2072097;28;20098;-69
2021/08/22 03:13:42;;;;;;;3.42;2.60;;;20.00;99.90;;;;;;2072080;28;20038;-69
2021/08/22 03:14:42;;;;;;;3.45;2.13;;;20.00;99.90;;;;;;2072713;28;20030;-69
2021/08/22 03:15:43;;;;;;;2.50;2.13;;;20.00;99.90;;;;;;2072159;28;20057;-70
2021/08/22 03:16:44;;;;;;;2.30;2.10;;;20.00;99.90;;;;;;2071819;28;20053;-70
2021/08/22 03:17:44;;;;;;;2.50;2.30;;;20.00;99.90;;;;;;2071986;28;20045;-69
2021/08/22 03:18:45;;;;;;;3.47;2.60;;;20.00;99.90;;;;;;2072383;28;20113;-70
2021/08/22 03:19:45;;;;;;;2.70;2.50;;;20.00;99.90;;;;;;2072046;28;20091;-69
2021/08/22 03:20:46;;;;;;;4.05;2.47;;;20.00;99.90;;;;;;2072304;28;20037;-69
2021/08/22 03:21:46;;;;;;;3.47;2.55;;;20.00;99.90;;;;;;2071884;28;20490;-69
2021/08/22 03:22:47;;;;;;;2.80;2.60;;;20.00;99.90;;;;;;2070222;28;20034;-69
2021/08/22 03:23:47;;;;;;;2.67;2.47;;;20.00;99.90;;;;;;2070538;28;20084;-69
2021/08/22 03:24:48;;;;;;;3.38;3.08;;;20.00;99.90;;;;;;2075435;28;20026;-69
2021/08/22 03:25:48;;;;;;;2.80;2.60;;;20.00;99.90;;;;;;2071786;28;20034;-69
2021/08/22 03:26:49;;;;;;;2.80;2.60;;;20.00;99.90;;;;;;2072143;28;20107;-69
2021/08/22 03:27:49;;;;;;;3.20;2.80;;;20.00;99.90;;;;;;2071950;28;20457;-70
2021/08/22 03:28:51;;;;;;;3.97;3.10;;;20.00;99.90;;;;;;2072451;28;20068;-69
2021/08/22 03:29:51;;;;;;;5.93;3.83;;;20.00;99.90;;;;;;2072238;28;20038;-69
2021/08/22 03:30:53;;;;;;;5.50;3.65;;;20.00;99.90;;;;;;2074806;28;20029;-69
2021/08/22 03:31:53;;;;;;;3.50;3.20;;;20.00;99.90;;;;;;2072130;28;20033;-69
2021/08/22 03:32:55;;;;;;;3.92;3.58;;;20.00;99.90;;;;;;2070400;28;20105;-69
2021/08/22 03:33:55;;;;;;;5.03;4.30;;;20.00;99.90;;;;;;2071069;28;20056;-69
2021/08/22 03:34:57;;;;;;;7.00;4.90;;;20.00;99.90;;;;;;2072161;28;20054;-69
2021/08/22 03:35:57;;;;;;;7.30;5.60;;;20.00;99.90;;;;;;2072080;28;20033;-69
2021/08/22 03:36:58;;;;;;;6.63;5.97;;;19.90;99.90;;;;;;2072128;28;20026;-69
2021/08/22 03:37:58;;;;;;;7.57;6.82;;;20.00;99.90;;;;;;2071978;28;20037;-69
2021/08/22 03:38:59;;;;;;;7.97;7.22;;;19.90;99.90;;;;;;2070057;28;20025;-69
2021/08/22 03:39:59;;;;;;;8.32;7.50;;;19.90;99.90;;;;;;2072205;28;20026;-69
2021/08/22 03:41:00;;;;;;;9.10;8.10;;;19.90;99.90;;;;;;2071861;28;20067;-69
2021/08/22 03:42:01;;;;;;;10.35;9.25;;;19.90;99.90;;;;;;2072169;28;20057;-70
2021/08/22 03:43:01;;;;;;;12.05;10.02;;;19.90;99.90;;;;;;2071337;28;20546;-69
2021/08/22 03:44:03;;;;;;;11.77;10.57;;;19.90;99.90;;;;;;2072356;28;20014;-70
2021/08/22 03:45:05;;;;;;;14.35;11.15;;;19.90;99.90;;;;;;2071934;28;20049;-70
2021/08/22 03:46:05;;;;;;;13.95;11.20;;;19.90;99.90;;;;;;2072023;28;20022;-69
2021/08/22 03:47:06;;;;;;;12.18;10.50;;;19.90;99.90;;;;;;2071663;28;20060;-69
2021/08/22 03:48:07;;;;;;;13.15;11.35;;;19.90;99.90;;;;;;2072049;28;20021;-69
2021/08/22 03:49:07;;;;;;;16.30;12.52;;;19.90;99.90;;;;;;2071952;28;20016;-69
2021/08/22 03:50:08;;;;;;;12.73;11.43;;;19.90;99.90;;;;;;2073135;28;20454;-69
2021/08/22 03:51:09;;;;;;;14.45;12.88;;;19.90;99.90;;;;;;2072096;28;20077;-70
2021/08/22 03:52:09;;;;;;;13.77;12.38;;;19.90;99.90;;;;;;2071882;28;20157;-70
2021/08/22 03:53:10;;;;;;;14.32;12.43;;;19.90;99.90;;;;;;2071528;28;20026;-70
2021/08/22 03:54:10;;;;;;;14.45;13.02;;;19.90;99.90;;;;;;2072056;28;20089;-69
2021/08/22 03:55:11;;;;;;;15.68;14.13;;;19.90;99.90;;;;;;2071921;28;20026;-69
2021/08/22 03:56:12;;;;;;;15.32;13.75;;;19.90;99.90;;;;;;2071788;28;20022;-69
2021/08/22 03:57:12;;;;;;;15.43;13.90;;;19.90;99.90;;;;;;2071550;28;20099;-70
2021/08/22 03:58:13;;;;;;;16.58;14.73;;;19.90;99.90;;;;;;2071742;28;20022;-69
2021/08/22 03:59:13;;;;;;;17.15;15.38;;;19.90;99.90;;;;;;2072089;28;20022;-69
2021/08/22 04:00:15;;;;;;;17.33;15.63;;;19.90;99.90;;;;;;2071875;28;20101;-69
2021/08/22 04:01:16;;;;;;;17.48;15.68;;;20.00;99.90;;;;;;2071695;28;20026;-69
2021/08/22 04:02:16;;;;;;;18.58;16.67;;;19.90;99.90;;;;;;2071940;28;20076;-70
2021/08/22 04:03:17;;;;;;;19.67;16.63;;;19.90;99.90;;;;;;2071498;28;20390;-70
2021/08/22 04:04:17;;;;;;;19.30;17.27;;;19.90;99.90;;;;;;2076871;28;20080;-69
2021/08/22 04:05:18;;;;;;;18.25;16.35;;;19.90;99.90;;;;;;2074299;28;20013;-70
2021/08/22 04:06:18;;;;;;;21.85;18.75;;;20.00;99.90;;;;;;2071968;28;20128;-70
2021/08/22 04:07:19;;;;;;;22.08;18.55;;;19.90;99.90;;;;;;2071796;28;20018;-69
2021/08/22 04:08:24;;;;;;;21.50;19.08;;;20.00;99.90;;;;;;2071905;28;20027;-69
2021/08/22 04:09:25;;;;;;;22.80;19.33;;;20.00;99.90;;;;;;2072013;28;20022;-69
2021/08/22 04:10:27;;;;;;;23.48;19.90;;;19.90;99.90;;;;;;2072211;28;20030;-69
2021/08/22 04:11:30;;;;;;;21.73;19.00;;;20.00;99.90;;;;;;2071860;28;20026;-69
2021/08/22 04:12:32;;;;;;;21.23;18.58;;;20.00;99.90;;;;;;2071244;28;20038;-69
2021/08/22 04:13:32;;;;;;;22.98;20.38;;;19.90;99.90;;;;;;2070385;28;20026;-69
2021/08/22 04:14:33;;;;;;;20.65;18.45;;;20.00;99.90;;;;;;2071766;28;20058;-69
2021/08/22 04:15:33;;;;;;;21.25;19.10;;;20.00;99.90;;;;;;2072051;28;20037;-69
2021/08/22 04:16:34;;;;;;;21.58;18.63;;;20.00;99.90;;;;;;2071662;28;20129;-69
2021/08/22 04:17:34;;;;;;;20.75;18.60;;;20.00;99.90;;;;;;2072349;28;20485;-69
2021/08/22 04:18:35;;;;;;;21.98;19.75;;;20.00;99.90;;;;;;2071572;28;20104;-69
2021/08/22 04:19:36;;;;;;;21.25;19.02;;;20.00;99.90;;;;;;2071810;28;20026;-69
2021/08/22 04:20:36;;;;;;;24.00;21.27;;;20.00;99.90;;;;;;2071815;28;20095;-70
2021/08/22 04:21:37;;;;;;;22.45;20.17;;;20.00;99.90;;;;;;2070945;28;20084;-69
2021/08/22 04:22:39;;;;;;;23.80;21.15;;;20.00;99.90;;;;;;2070575;28;20026;-69
2021/08/22 04:23:40;;;;;;;23.10;20.65;;;20.00;99.90;;;;;;2063837;28;20026;-69
2021/08/22 04:24:41;;;;;;;25.13;21.48;;;20.00;99.90;;;;;;2068652;28;20029;-69
2021/08/22 04:25:42;;;;;;;24.58;22.08;;;20.00;99.90;;;;;;2071942;28;20048;-70
2021/08/22 04:26:43;;;;;;;25.65;22.92;;;20.00;99.90;;;;;;2071563;28;20025;-69
2021/08/22 04:27:44;;;;;;;24.80;22.17;;;20.00;99.90;;;;;;2071846;28;20041;-69
2021/08/22 04:28:44;;;;;;;25.30;22.80;;;20.00;99.90;;;;;;2071648;28;20108;-70
2021/08/22 04:29:45;;;;;;;26.70;23.60;;;20.00;99.90;;;;;;2071893;28;20382;-69
2021/08/22 04:30:45;;;;;;;25.85;23.17;;;20.00;99.90;;;;;;2071426;28;20076;-69
2021/08/22 04:31:46;;;;;;;27.27;24.52;;;20.00;99.90;;;;;;2076162;28;20160;-69
2021/08/22 04:32:47;;;;;;;27.25;24.50;;;20.00;99.90;;;;;;2074078;28;20104;-69
2021/08/22 04:33:47;;;;;;;27.17;24.40;;;20.00;99.90;;;;;;2071997;28;20115;-70
2021/08/22 04:34:48;;;;;;;27.65;24.98;;;20.00;99.90;;;;;;2071749;28;20376;-70
2021/08/22 04:35:48;;;;;;;26.20;23.65;;;20.00;99.90;;;;;;2071684;28;20033;-69
2021/08/22 04:36:49;;;;;;;27.35;24.52;;;20.00;99.90;;;;;;2071484;28;20030;-69
2021/08/22 04:37:49;;;;;;;27.02;24.30;;;20.00;99.90;;;;;;2071724;28;20026;-70
2021/08/22 04:38:50;;;;;;;27.08;24.23;;;20.00;99.90;;;;;;2071188;28;20026;-70
2021/08/22 04:39:51;;;;;;;25.75;23.25;;;20.00;99.90;;;;;;2071800;28;20049;-69
2021/08/22 04:40:52;;;;;;;27.40;24.63;;;20.00;99.90;;;;;;2071960;28;20033;-69
2021/08/22 04:41:52;;;;;;;26.52;23.77;;;20.00;99.90;;;;;;2071551;28;20025;-69
2021/08/22 04:42:53;;;;;;;26.02;23.33;;;20.00;99.90;;;;;;2071446;28;20034;-69
2021/08/22 04:43:54;;;;;;;23.25;20.98;;;20.10;99.90;;;;;;2071624;28;20026;-69
2021/08/22 04:44:54;;;;;;;25.25;22.85;;;20.00;99.90;;;;;;2071556;28;20026;-70
2021/08/22 04:45:55;;;;;;;23.83;21.45;;;20.00;99.90;;;;;;2072927;28;20522;-69
2021/08/22 04:46:55;;;;;;;23.77;21.48;;;20.10;99.90;;;;;;2071690;28;20084;-69
2021/08/22 04:47:56;;;;;;;26.00;23.35;;;20.00;99.90;;;;;;2071800;28;20045;-70
2021/08/22 04:48:56;;;;;;;26.08;23.50;;;20.00;99.90;;;;;;2071399;28;20041;-70
2021/08/22 04:49:57;;;;;;;24.00;21.65;;;20.00;99.90;;;;;;2071570;28;20030;-69
2021/08/22 04:50:57;;;;;;;24.55;22.13;;;20.00;99.90;;;;;;2071277;28;20032;-69
2021/08/22 04:51:58;;;;;;;24.05;21.77;;;20.00;99.90;;;;;;2071321;28;20030;-69
2021/08/22 04:52:58;;;;;;;23.88;21.60;;;20.00;99.90;;;;;;2071590;28;20034;-69
2021/08/22 04:53:59;;;;;;;23.15;20.75;;;20.00;99.90;;;;;;2070651;28;20132;-69
2021/08/22 04:55:02;;;;;;;22.50;20.50;;;20.00;99.90;;;;;;2071526;28;20032;-70
2021/08/22 04:56:05;;;;;;;22.65;20.50;;;20.00;99.90;;;;;;2064560;28;20030;-69
2021/08/22 04:57:06;;;;;;;24.02;21.58;;;20.00;99.90;;;;;;2071609;28;20014;-69
2021/08/22 04:58:06;;;;;;;21.50;19.50;;;20.00;99.90;;;;;;2071562;28;20076;-69
2021/08/22 04:59:08;;;;;;;22.92;20.55;;;20.00;99.90;;;;;;2074445;28;20048;-69
2021/08/22 05:00:09;;;;;;;22.52;20.27;;;20.00;99.90;;;;;;2076508;28;20014;-69
2021/08/22 05:01:09;;;;;;;23.73;21.60;;;20.00;99.90;;;;;;2071561;28;20024;-69
2021/08/22 05:02:10;;;;;;;22.38;20.30;;;20.00;99.90;;;;;;2071244;28;20029;-69
2021/08/22 05:03:11;;;;;;;21.80;19.90;;;19.90;99.90;;;;;;2071432;28;20528;-69
2021/08/22 05:04:11;;;;;;;21.98;19.88;;;20.00;99.90;;;;;;2071640;28;20056;-69
2021/08/22 05:05:12;;;;;;;23.00;20.70;;;20.00;99.90;;;;;;2071468;28;20073;-70
2021/08/22 05:06:12;;;;;;;23.02;20.77;;;20.00;99.90;;;;;;2071645;28;20022;-69
2021/08/22 05:07:13;;;;;;;23.45;21.20;;;20.00;99.90;;;;;;2070767;28;20459;-70
2021/08/22 05:08:13;;;;;;;23.10;20.90;;;20.00;99.90;;;;;;2070601;28;20029;-69
2021/08/22 05:09:14;;;;;;;22.73;20.73;;;20.00;99.90;;;;;;2071672;28;20097;-69
2021/08/22 05:10:16;;;;;;;21.88;19.77;;;20.00;99.90;;;;;;2071444;28;20030;-69
2021/08/22 05:11:16;;;;;;;21.75;19.73;;;20.00;99.90;;;;;;2071531;28;20079;-70
2021/08/22 05:12:17;;;;;;;21.98;19.88;;;20.00;99.90;;;;;;2071338;28;20029;-69
2021/08/22 05:13:17;;;;;;;22.33;20.30;;;20.00;99.90;;;;;;2073125;28;20164;-69
2021/08/22 05:14:18;;;;;;;22.73;20.45;;;20.00;99.90;;;;;;2071202;28;20052;-69
2021/08/22 05:15:19;;;;;;;24.25;21.85;;;20.00;99.90;;;;;;2071802;28;20026;-69
2021/08/22 05:16:19;;;;;;;21.80;19.73;;;20.00;99.90;;;;;;2071004;28;20102;-70
2021/08/22 05:17:20;;;;;;;21.65;19.65;;;20.00;99.90;;;;;;2071644;28;20029;-70
2021/08/22 05:18:21;;;;;;;21.67;19.48;;;20.00;99.90;;;;;;2071506;28;20517;-70
2021/08/22 05:19:22;;;;;;;20.85;18.98;;;20.00;99.90;;;;;;2071610;28;20036;-69